sensor_id;sensor_type;location;lat;lon;timestamp;temperature;humidity
3154;DHT22;1587;48.630;9.046;2024-01-07T08:33:36;2.20;99.90
3154;DHT22;1587;48.630;9.046;2024-01-07T08:36:02;2.30;99.90
3154;DHT22;1587;48.630;9.046;2024-01-07T08:38:27;2.20;99.90
3154;DHT22;1587;48.630;9.046;2024-01-07T08:40:53;2.20;99.90
3154;DHT22;1587;48.630;9.046;2024-01-07T08:43:18;2.20;99.90
3154;DHT22;1587;48.630;9.046;2024-01-07T08:45:44;2.20;99.90
3154;DHT22;1587;48.630;9.046;2024-01-07T08:48:09;2.30;99.90
3154;DHT22;1587;48.630;9.046;2024-01-07T08:50:35;2.10;99.90
3154;DHT22;1587;48.630;9.046;2024-01-07T08:53:00;2.20;99.90
3154;DHT22;1587;48.630;9.046;2024-01-07T08:55:26;2.10;99.90
3154;DHT22;1587;48.630;9.046;2024-01-07T08:57:52;2.10;99.90
3154;DHT22;1587;48.630;9.046;2024-01-07T09:00:18;2.20;99.90
3154;DHT22;1587;48.630;9.046;2024-01-07T09:02:43;2.10;99.90
3154;DHT22;1587;48.630;9.046;2024-01-07T09:05:09;2.20;99.90
3154;DHT22;1587;48.630;9.046;2024-01-07T09:07:34;2.20;99.90
3154;DHT22;1587;48.630;9.046;2024-01-07T09:10:00;2.10;99.90
3154;DHT22;1587;48.630;9.046;2024-01-07T09:12:28;2.10;99.90
3154;DHT22;1587;48.630;9.046;2024-01-07T09:14:54;2.20;99.90
3154;DHT22;1587;48.630;9.046;2024-01-07T09:17:19;2.10;99.90
3154;DHT22;1587;48.630;9.046;2024-01-07T09:19:45;2.10;99.90
3154;DHT22;1587;48.630;9.046;2024-01-07T09:22:10;2.10;99.90
3154;DHT22;1587;48.630;9.046;2024-01-07T09:24:37;2.10;99.90
3154;DHT22;1587;48.630;9.046;2024-01-07T09:27:02;2.20;99.90
3154;DHT22;1587;48.630;9.046;2024-01-07T09:29:28;2.10;99.90
3154;DHT22;1587;48.630;9.046;2024-01-07T09:31:53;2.10;99.90
3154;DHT22;1587;48.630;9.046;2024-01-07T09:34:19;2.10;99.90
3154;DHT22;1587;48.630;9.046;2024-01-07T09:36:44;2.10;99.90
3154;DHT22;1587;48.630;9.046;2024-01-07T09:39:10;2.10;99.90
3154;DHT22;1587;48.630;9.046;2024-01-07T09:41:35;2.10;99.90
3154;DHT22;1587;48.630;9.046;2024-01-07T09:44:01;2.10;99.90
3154;DHT22;1587;48.630;9.046;2024-01-07T09:46:26;2.10;99.90
3154;DHT22;1587;48.630;9.046;2024-01-07T09:48:54;2.10;99.90
3154;DHT22;1587;48.630;9.046;2024-01-07T09:51:21;2.20;99.90
3154;DHT22;1587;48.630;9.046;2024-01-07T09:53:47;2.10;99.90
3154;DHT22;1587;48.630;9.046;2024-01-07T09:58:40;2.10;99.90
3154;DHT22;1587;48.630;9.046;2024-01-07T10:01:07;2.10;99.90
3154;DHT22;1587;48.630;9.046;2024-01-07T10:03:33;2.10;99.90
3154;DHT22;1587;48.630;9.046;2024-01-07T10:05:58;2.10;99.90
3154;DHT22;1587;48.630;9.046;2024-01-07T10:08:24;2.30;99.90
3154;DHT22;1587;48.630;9.046;2024-01-07T10:10:49;2.30;99.90
3154;DHT22;1587;48.630;9.046;2024-01-07T10:13:15;2.40;99.90
3154;DHT22;1587;48.630;9.046;2024-01-07T10:15:40;2.40;99.90
3154;DHT22;1587;48.630;9.046;2024-01-07T10:18:06;2.40;99.90
3154;DHT22;1587;48.630;9.046;2024-01-07T10:20:32;2.40;99.90
3154;DHT22;1587;48.630;9.046;2024-01-07T10:22:59;2.60;99.90
3154;DHT22;1587;48.630;9.046;2024-01-07T10:25:24;2.50;99.90
3154;DHT22;1587;48.630;9.046;2024-01-07T10:27:50;2.60;99.90
3154;DHT22;1587;48.630;9.046;2024-01-07T10:30:16;2.50;99.90
3154;DHT22;1587;48.630;9.046;2024-01-07T10:32:42;2.50;99.90
3154;DHT22;1587;48.630;9.046;2024-01-07T10:35:08;2.50;99.90
3154;DHT22;1587;48.630;9.046;2024-01-07T10:37:36;2.50;99.90
3154;DHT22;1587;48.630;9.046;2024-01-07T10:40:01;2.30;99.90
3154;DHT22;1587;48.630;9.046;2024-01-07T10:42:31;2.30;99.90
3154;DHT22;1587;48.630;9.046;2024-01-07T10:44:58;2.10;99.90
3154;DHT22;1587;48.630;9.046;2024-01-07T10:47:23;2.00;99.90
3154;DHT22;1587;48.630;9.046;2024-01-07T10:49:50;2.10;99.90
3154;DHT22;1587;48.630;9.046;2024-01-07T10:52:16;2.10;99.90
3154;DHT22;1587;48.630;9.046;2024-01-07T10:54:42;1.90;99.90
3154;DHT22;1587;48.630;9.046;2024-01-07T10:59:37;1.90;99.90
3154;DHT22;1587;48.630;9.046;2024-01-07T11:02:03;1.90;99.90
3154;DHT22;1587;48.630;9.046;2024-01-07T11:04:30;1.80;99.90
3154;DHT22;1587;48.630;9.046;2024-01-07T11:07:18;1.80;99.90
3154;DHT22;1587;48.630;9.046;2024-01-07T11:09:51;1.80;99.90
3154;DHT22;1587;48.630;9.046;2024-01-07T11:12:20;1.80;99.90
3154;DHT22;1587;48.630;9.046;2024-01-07T11:14:45;1.70;99.90
3154;DHT22;1587;48.630;9.046;2024-01-07T11:17:51;1.70;99.90
3154;DHT22;1587;48.630;9.046;2024-01-07T11:20:18;1.70;99.90
3154;DHT22;1587;48.630;9.046;2024-01-07T11:22:44;1.50;99.90
3154;DHT22;1587;48.630;9.046;2024-01-07T11:25:29;1.50;99.90
3154;DHT22;1587;48.630;9.046;2024-01-07T11:27:56;1.40;99.90
3154;DHT22;1587;48.630;9.046;2024-01-07T11:30:21;1.50;99.90
3154;DHT22;1587;48.630;9.046;2024-01-07T11:32:46;1.40;99.90
3154;DHT22;1587;48.630;9.046;2024-01-07T11:35:12;1.50;99.90
3154;DHT22;1587;48.630;9.046;2024-01-07T11:37:38;1.50;99.90
3154;DHT22;1587;48.630;9.046;2024-01-07T11:40:04;1.40;99.90
3154;DHT22;1587;48.630;9.046;2024-01-07T11:42:29;1.40;99.90
3154;DHT22;1587;48.630;9.046;2024-01-07T11:44:57;1.40;99.90
3154;DHT22;1587;48.630;9.046;2024-01-07T11:47:23;1.40;99.90
3154;DHT22;1587;48.630;9.046;2024-01-07T11:49:49;1.30;99.90
3154;DHT22;1587;48.630;9.046;2024-01-07T11:52:14;1.40;99.90
3154;DHT22;1587;48.630;9.046;2024-01-07T11:54:41;1.30;99.90
3154;DHT22;1587;48.630;9.046;2024-01-07T11:57:07;1.40;99.90
3154;DHT22;1587;48.630;9.046;2024-01-07T11:59:35;1.50;99.90
3154;DHT22;1587;48.630;9.046;2024-01-07T12:02:02;1.50;99.90
3154;DHT22;1587;48.630;9.046;2024-01-07T12:04:30;1.40;99.90
3154;DHT22;1587;48.630;9.046;2024-01-07T12:06:55;1.50;99.90
3154;DHT22;1587;48.630;9.046;2024-01-07T12:09:21;1.50;99.90
3154;DHT22;1587;48.630;9.046;2024-01-07T12:11:46;1.40;99.90
3154;DHT22;1587;48.630;9.046;2024-01-07T12:14:12;1.40;99.90
3154;DHT22;1587;48.630;9.046;2024-01-07T12:16:37;1.40;99.90
3154;DHT22;1587;48.630;9.046;2024-01-07T12:19:03;1.40;99.90
3154;DHT22;1587;48.630;9.046;2024-01-07T12:21:28;1.40;99.90
3154;DHT22;1587;48.630;9.046;2024-01-07T12:23:55;1.50;99.90
3154;DHT22;1587;48.630;9.046;2024-01-07T12:26:25;1.50;99.90
3154;DHT22;1587;48.630;9.046;2024-01-07T12:28:57;1.40;99.90
3154;DHT22;1587;48.630;9.046;2024-01-07T12:31:28;1.50;99.90
3154;DHT22;1587;48.630;9.046;2024-01-07T12:33:53;1.30;99.90
3154;DHT22;1587;48.630;9.046;2024-01-07T12:36:22;1.30;99.90
3154;DHT22;1587;48.630;9.046;2024-01-07T12:38:48;1.30;99.90
3154;DHT22;1587;48.630;9.046;2024-01-07T12:41:14;1.20;99.90
3154;DHT22;1587;48.630;9.046;2024-01-07T12:43:39;1.20;99.90
3154;DHT22;1587;48.630;9.046;2024-01-07T12:46:06;1.20;99.90
3154;DHT22;1587;48.630;9.046;2024-01-07T12:48:32;1.00;99.90
3154;DHT22;1587;48.630;9.046;2024-01-07T12:50:57;1.20;99.90
3154;DHT22;1587;48.630;9.046;2024-01-07T12:53:23;1.10;99.90
3154;DHT22;1587;48.630;9.046;2024-01-07T12:55:49;1.10;99.90
3154;DHT22;1587;48.630;9.046;2024-01-07T12:58:15;1.10;99.90
3154;DHT22;1587;48.630;9.046;2024-01-07T13:00:42;1.10;99.90
3154;DHT22;1587;48.630;9.046;2024-01-07T13:03:07;1.00;99.90
3154;DHT22;1587;48.630;9.046;2024-01-07T13:05:39;1.10;99.90
3154;DHT22;1587;48.630;9.046;2024-01-07T13:08:04;1.10;99.90
3154;DHT22;1587;48.630;9.046;2024-01-07T13:10:30;1.10;99.90
3154;DHT22;1587;48.630;9.046;2024-01-07T13:12:55;1.10;99.90
3154;DHT22;1587;48.630;9.046;2024-01-07T13:15:21;1.10;99.90
3154;DHT22;1587;48.630;9.046;2024-01-07T13:17:47;1.10;99.90
3154;DHT22;1587;48.630;9.046;2024-01-07T13:20:13;1.00;99.90
3154;DHT22;1587;48.630;9.046;2024-01-07T13:22:38;1.00;99.90
3154;DHT22;1587;48.630;9.046;2024-01-07T13:25:05;0.90;99.90
3154;DHT22;1587;48.630;9.046;2024-01-07T13:27:30;0.90;99.90
3154;DHT22;1587;48.630;9.046;2024-01-07T13:29:56;0.90;99.90
3154;DHT22;1587;48.630;9.046;2024-01-07T13:32:21;0.90;99.90
3154;DHT22;1587;48.630;9.046;2024-01-07T13:34:46;0.90;99.90
3154;DHT22;1587;48.630;9.046;2024-01-07T13:37:12;0.80;99.90
3154;DHT22;1587;48.630;9.046;2024-01-07T13:39:38;0.90;99.90
3154;DHT22;1587;48.630;9.046;2024-01-07T13:42:04;0.80;99.90
3154;DHT22;1587;48.630;9.046;2024-01-07T13:44:30;0.80;99.90
3154;DHT22;1587;48.630;9.046;2024-01-07T13:46:55;0.80;99.90
3154;DHT22;1587;48.630;9.046;2024-01-07T13:49:21;1.00;99.90
3154;DHT22;1587;48.630;9.046;2024-01-07T13:51:46;0.70;99.90
3154;DHT22;1587;48.630;9.046;2024-01-07T13:54:12;0.70;99.90
3154;DHT22;1587;48.630;9.046;2024-01-07T13:56:42;0.70;99.90
3154;DHT22;1587;48.630;9.046;2024-01-07T13:59:10;0.70;99.90
3154;DHT22;1587;48.630;9.046;2024-01-07T14:01:35;0.70;99.90
3154;DHT22;1587;48.630;9.046;2024-01-07T14:04:01;0.60;99.90
3154;DHT22;1587;48.630;9.046;2024-01-07T14:06:27;0.60;99.90
3154;DHT22;1587;48.630;9.046;2024-01-07T14:08:52;0.60;99.90
3154;DHT22;1587;48.630;9.046;2024-01-07T14:11:19;0.60;99.90
3154;DHT22;1587;48.630;9.046;2024-01-07T14:13:44;0.60;99.90
3154;DHT22;1587;48.630;9.046;2024-01-07T14:16:11;0.40;99.90
3154;DHT22;1587;48.630;9.046;2024-01-07T14:18:36;0.40;99.90
3154;DHT22;1587;48.630;9.046;2024-01-07T14:21:02;0.30;99.90
3154;DHT22;1587;48.630;9.046;2024-01-07T14:23:27;0.30;99.90
3154;DHT22;1587;48.630;9.046;2024-01-07T14:25:55;0.30;99.90
3154;DHT22;1587;48.630;9.046;2024-01-07T14:28:21;0.30;99.90
3154;DHT22;1587;48.630;9.046;2024-01-07T14:30:47;0.20;99.90
3154;DHT22;1587;48.630;9.046;2024-01-07T14:33:12;0.20;99.90
3154;DHT22;1587;48.630;9.046;2024-01-07T14:35:38;0.10;99.90
3154;DHT22;1587;48.630;9.046;2024-01-07T14:38:04;0.10;99.90
3154;DHT22;1587;48.630;9.046;2024-01-07T14:40:30;0.10;99.90
3154;DHT22;1587;48.630;9.046;2024-01-07T14:42:55;0.10;99.90
3154;DHT22;1587;48.630;9.046;2024-01-07T14:45:23;0.00;99.90
3154;DHT22;1587;48.630;9.046;2024-01-07T14:47:50;0.00;99.90
3154;DHT22;1587;48.630;9.046;2024-01-07T14:50:16;0.00;99.90
3154;DHT22;1587;48.630;9.046;2024-01-07T14:52:43;0.00;99.90
3154;DHT22;1587;48.630;9.046;2024-01-07T14:55:08;-0.10;99.90
3154;DHT22;1587;48.630;9.046;2024-01-07T14:57:34;-0.10;99.90
3154;DHT22;1587;48.630;9.046;2024-01-07T14:59:59;-0.10;99.90
3154;DHT22;1587;48.630;9.046;2024-01-07T15:02:25;-0.10;99.90
3154;DHT22;1587;48.630;9.046;2024-01-07T15:04:50;-0.20;99.90
3154;DHT22;1587;48.630;9.046;2024-01-07T15:07:17;-0.20;99.90
3154;DHT22;1587;48.630;9.046;2024-01-07T15:09:43;-0.20;99.90
3154;DHT22;1587;48.630;9.046;2024-01-07T15:12:09;-0.20;99.90
3154;DHT22;1587;48.630;9.046;2024-01-07T15:14:34;-0.30;99.90
3154;DHT22;1587;48.630;9.046;2024-01-07T15:17:00;-0.20;99.90
3154;DHT22;1587;48.630;9.046;2024-01-07T15:19:25;-0.30;99.90
3154;DHT22;1587;48.630;9.046;2024-01-07T15:21:51;-0.40;99.90
3154;DHT22;1587;48.630;9.046;2024-01-07T15:24:16;-0.40;99.90
3154;DHT22;1587;48.630;9.046;2024-01-07T15:26:42;-0.30;99.90
3154;DHT22;1587;48.630;9.046;2024-01-07T15:29:07;-0.40;99.90
3154;DHT22;1587;48.630;9.046;2024-01-07T15:31:33;-0.40;99.90
3154;DHT22;1587;48.630;9.046;2024-01-07T15:33:59;-0.50;99.90
3154;DHT22;1587;48.630;9.046;2024-01-07T15:36:24;-0.50;99.90
3154;DHT22;1587;48.630;9.046;2024-01-07T15:38:50;-0.50;99.90
3154;DHT22;1587;48.630;9.046;2024-01-07T15:41:15;-0.50;99.90
3154;DHT22;1587;48.630;9.046;2024-01-07T15:43:41;-0.60;99.90
3154;DHT22;1587;48.630;9.046;2024-01-07T15:46:06;-0.60;99.90
3154;DHT22;1587;48.630;9.046;2024-01-07T15:48:32;-0.60;99.90
3154;DHT22;1587;48.630;9.046;2024-01-07T15:50:57;-0.60;99.90
3154;DHT22;1587;48.630;9.046;2024-01-07T15:53:24;-0.60;99.90
3154;DHT22;1587;48.630;9.046;2024-01-07T15:55:57;-0.60;99.90
3154;DHT22;1587;48.630;9.046;2024-01-07T15:58:23;-0.70;99.90
3154;DHT22;1587;48.630;9.046;2024-01-07T16:00:51;-0.70;99.90
3154;DHT22;1587;48.630;9.046;2024-01-07T16:03:16;-0.70;99.90
3154;DHT22;1587;48.630;9.046;2024-01-07T16:05:42;-0.70;99.90
3154;DHT22;1587;48.630;9.046;2024-01-07T16:08:07;-0.80;99.90
3154;DHT22;1587;48.630;9.046;2024-01-07T16:10:33;-0.80;99.90
3154;DHT22;1587;48.630;9.046;2024-01-07T16:12:58;-0.90;99.90
3154;DHT22;1587;48.630;9.046;2024-01-07T16:15:23;-0.90;99.90
3154;DHT22;1587;48.630;9.046;2024-01-07T16:17:49;-0.80;99.90
3154;DHT22;1587;48.630;9.046;2024-01-07T16:20:15;-0.80;99.90
3154;DHT22;1587;48.630;9.046;2024-01-07T16:22:41;-0.80;99.90
3154;DHT22;1587;48.630;9.046;2024-01-07T16:25:06;-0.80;99.90
3154;DHT22;1587;48.630;9.046;2024-01-07T16:27:32;-0.80;99.90
3154;DHT22;1587;48.630;9.046;2024-01-07T16:29:57;-0.90;99.90
3154;DHT22;1587;48.630;9.046;2024-01-07T16:32:23;-0.90;99.90
3154;DHT22;1587;48.630;9.046;2024-01-07T16:34:48;-0.90;99.90
3154;DHT22;1587;48.630;9.046;2024-01-07T16:37:14;-0.80;99.90
3154;DHT22;1587;48.630;9.046;2024-01-07T16:39:39;-0.80;99.90
3154;DHT22;1587;48.630;9.046;2024-01-07T16:42:05;-0.90;99.90
3154;DHT22;1587;48.630;9.046;2024-01-07T16:44:31;-0.80;99.90
3154;DHT22;1587;48.630;9.046;2024-01-07T16:46:56;-1.00;99.90
3154;DHT22;1587;48.630;9.046;2024-01-07T16:49:21;-0.90;99.90
3154;DHT22;1587;48.630;9.046;2024-01-07T16:51:47;-0.90;99.90
3154;DHT22;1587;48.630;9.046;2024-01-07T16:54:12;-0.90;99.90
3154;DHT22;1587;48.630;9.046;2024-01-07T16:56:38;-1.00;99.90
3154;DHT22;1587;48.630;9.046;2024-01-07T16:59:03;-0.90;99.90
3154;DHT22;1587;48.630;9.046;2024-01-07T17:01:29;-1.00;99.90
3154;DHT22;1587;48.630;9.046;2024-01-07T17:03:54;-1.00;99.90
3154;DHT22;1587;48.630;9.046;2024-01-07T17:06:25;-0.90;99.90
3154;DHT22;1587;48.630;9.046;2024-01-07T17:08:51;-1.00;99.90
3154;DHT22;1587;48.630;9.046;2024-01-07T17:11:17;-1.00;99.90
3154;DHT22;1587;48.630;9.046;2024-01-07T17:13:42;-1.10;99.90
3154;DHT22;1587;48.630;9.046;2024-01-07T17:16:07;-1.10;99.90
3154;DHT22;1587;48.630;9.046;2024-01-07T17:18:33;-1.20;99.90
3154;DHT22;1587;48.630;9.046;2024-01-07T17:20:59;-1.20;99.90
3154;DHT22;1587;48.630;9.046;2024-01-07T17:23:24;-1.30;99.90
3154;DHT22;1587;48.630;9.046;2024-01-07T17:25:50;-1.30;99.90
3154;DHT22;1587;48.630;9.046;2024-01-07T17:28:15;-1.30;99.90
3154;DHT22;1587;48.630;9.046;2024-01-07T17:30:42;-1.30;99.90
3154;DHT22;1587;48.630;9.046;2024-01-07T17:33:07;-1.30;99.90
3154;DHT22;1587;48.630;9.046;2024-01-07T17:35:35;-1.30;99.90
3154;DHT22;1587;48.630;9.046;2024-01-07T17:38:01;-1.30;99.90
3154;DHT22;1587;48.630;9.046;2024-01-07T17:40:26;-1.30;99.90
3154;DHT22;1587;48.630;9.046;2024-01-07T17:42:52;-1.30;99.90
3154;DHT22;1587;48.630;9.046;2024-01-07T17:45:18;-1.30;99.90
3154;DHT22;1587;48.630;9.046;2024-01-07T17:47:46;-1.20;99.90
3154;DHT22;1587;48.630;9.046;2024-01-07T17:50:12;-1.30;99.90
3154;DHT22;1587;48.630;9.046;2024-01-07T17:52:38;-1.20;99.90
3154;DHT22;1587;48.630;9.046;2024-01-07T17:55:04;-1.20;99.90
3154;DHT22;1587;48.630;9.046;2024-01-07T17:57:29;-1.30;99.90
3154;DHT22;1587;48.630;9.046;2024-01-07T17:59:59;-1.30;99.90
3154;DHT22;1587;48.630;9.046;2024-01-07T18:02:25;-1.30;99.90
3154;DHT22;1587;48.630;9.046;2024-01-07T18:04:51;-1.50;99.90
3154;DHT22;1587;48.630;9.046;2024-01-07T18:07:16;-1.30;99.90
3154;DHT22;1587;48.630;9.046;2024-01-07T18:09:44;-1.30;99.90
3154;DHT22;1587;48.630;9.046;2024-01-07T18:12:09;-1.30;99.90
3154;DHT22;1587;48.630;9.046;2024-01-07T18:14:35;-1.30;99.90
3154;DHT22;1587;48.630;9.046;2024-01-07T18:17:00;-1.40;99.90
3154;DHT22;1587;48.630;9.046;2024-01-07T18:19:26;-1.30;99.90
3154;DHT22;1587;48.630;9.046;2024-01-07T18:21:51;-1.30;99.90
3154;DHT22;1587;48.630;9.046;2024-01-07T18:24:17;-1.30;99.90
3154;DHT22;1587;48.630;9.046;2024-01-07T18:26:42;-1.30;99.90
3154;DHT22;1587;48.630;9.046;2024-01-07T18:29:08;-1.30;99.90
3154;DHT22;1587;48.630;9.046;2024-01-07T18:31:38;-1.30;99.90
3154;DHT22;1587;48.630;9.046;2024-01-07T18:34:04;-1.50;99.90
3154;DHT22;1587;48.630;9.046;2024-01-07T18:36:29;-1.30;99.90
3154;DHT22;1587;48.630;9.046;2024-01-07T18:38:55;-1.40;99.90
3154;DHT22;1587;48.630;9.046;2024-01-07T18:41:20;-1.50;99.90
3154;DHT22;1587;48.630;9.046;2024-01-07T18:43:46;-1.50;99.90
3154;DHT22;1587;48.630;9.046;2024-01-07T18:46:13;-1.50;99.90
3154;DHT22;1587;48.630;9.046;2024-01-07T18:48:43;-1.50;99.90
3154;DHT22;1587;48.630;9.046;2024-01-07T18:51:09;-1.40;99.90
3154;DHT22;1587;48.630;9.046;2024-01-07T18:53:36;-1.60;99.90
3154;DHT22;1587;48.630;9.046;2024-01-07T18:56:04;-1.50;99.90
3154;DHT22;1587;48.630;9.046;2024-01-07T18:58:29;-1.60;99.90
3154;DHT22;1587;48.630;9.046;2024-01-07T19:00:58;-1.70;99.90
3154;DHT22;1587;48.630;9.046;2024-01-07T19:03:23;-1.70;99.90
3154;DHT22;1587;48.630;9.046;2024-01-07T19:05:49;-1.70;99.90
3154;DHT22;1587;48.630;9.046;2024-01-07T19:08:14;-1.60;99.90
3154;DHT22;1587;48.630;9.046;2024-01-07T19:10:40;-1.70;99.90
3154;DHT22;1587;48.630;9.046;2024-01-07T19:13:05;-1.80;99.90
3154;DHT22;1587;48.630;9.046;2024-01-07T19:15:31;-1.70;99.90
3154;DHT22;1587;48.630;9.046;2024-01-07T19:17:56;-1.80;99.90
3154;DHT22;1587;48.630;9.046;2024-01-07T19:20:23;-1.70;99.90
3154;DHT22;1587;48.630;9.046;2024-01-07T19:22:56;-1.70;99.90
3154;DHT22;1587;48.630;9.046;2024-01-07T19:25:21;-1.70;99.90
3154;DHT22;1587;48.630;9.046;2024-01-07T19:27:47;-1.80;99.90
3154;DHT22;1587;48.630;9.046;2024-01-07T19:30:12;-1.80;99.90
3154;DHT22;1587;48.630;9.046;2024-01-07T19:32:38;-1.80;99.90
3154;DHT22;1587;48.630;9.046;2024-01-07T19:35:03;-1.90;99.90
3154;DHT22;1587;48.630;9.046;2024-01-07T19:37:30;-1.90;99.90
3154;DHT22;1587;48.630;9.046;2024-01-07T19:39:56;-1.80;99.90
3154;DHT22;1587;48.630;9.046;2024-01-07T19:42:22;-1.90;99.90
3154;DHT22;1587;48.630;9.046;2024-01-07T19:44:48;-1.90;99.90
3154;DHT22;1587;48.630;9.046;2024-01-07T19:47:13;-1.80;99.90
3154;DHT22;1587;48.630;9.046;2024-01-07T19:49:39;-1.90;99.90
3154;DHT22;1587;48.630;9.046;2024-01-07T19:52:04;-1.90;99.90
3154;DHT22;1587;48.630;9.046;2024-01-07T19:54:31;-2.00;99.90
3154;DHT22;1587;48.630;9.046;2024-01-07T19:56:57;-2.10;99.90
3154;DHT22;1587;48.630;9.046;2024-01-07T19:59:22;-2.20;99.90
3154;DHT22;1587;48.630;9.046;2024-01-07T20:01:48;-2.30;99.90
3154;DHT22;1587;48.630;9.046;2024-01-07T20:04:14;-2.60;99.90
3154;DHT22;1587;48.630;9.046;2024-01-07T20:06:40;-2.10;99.90
3154;DHT22;1587;48.630;9.046;2024-01-07T20:09:05;-2.20;99.90
3154;DHT22;1587;48.630;9.046;2024-01-07T20:11:31;-2.20;99.90
3154;DHT22;1587;48.630;9.046;2024-01-07T20:13:58;-2.20;99.90
3154;DHT22;1587;48.630;9.046;2024-01-07T20:16:23;-2.20;99.90
3154;DHT22;1587;48.630;9.046;2024-01-07T20:18:50;-2.30;99.90
3154;DHT22;1587;48.630;9.046;2024-01-07T20:21:22;-2.40;99.90
3154;DHT22;1587;48.630;9.046;2024-01-07T20:23:48;-2.40;99.90
3154;DHT22;1587;48.630;9.046;2024-01-07T20:26:14;-2.40;99.90
3154;DHT22;1587;48.630;9.046;2024-01-07T20:28:39;-2.40;99.90
3154;DHT22;1587;48.630;9.046;2024-01-07T20:31:05;-2.50;99.90
3154;DHT22;1587;48.630;9.046;2024-01-07T20:33:30;-2.30;99.90
3154;DHT22;1587;48.630;9.046;2024-01-07T20:35:55;-2.40;99.90
3154;DHT22;1587;48.630;9.046;2024-01-07T20:38:22;-2.40;99.90
3154;DHT22;1587;48.630;9.046;2024-01-07T20:40:49;-2.40;99.90
3154;DHT22;1587;48.630;9.046;2024-01-07T20:43:14;-2.30;99.90
3154;DHT22;1587;48.630;9.046;2024-01-07T20:45:40;-2.50;99.90
3154;DHT22;1587;48.630;9.046;2024-01-07T20:48:05;-2.50;99.90
3154;DHT22;1587;48.630;9.046;2024-01-07T20:50:31;-2.50;99.90
3154;DHT22;1587;48.630;9.046;2024-01-07T20:52:57;-2.50;99.90
3154;DHT22;1587;48.630;9.046;2024-01-07T20:55:23;-2.60;99.90
3154;DHT22;1587;48.630;9.046;2024-01-07T20:57:48;-2.70;99.90
3154;DHT22;1587;48.630;9.046;2024-01-07T21:00:15;-2.60;99.90
3154;DHT22;1587;48.630;9.046;2024-01-07T21:02:41;-2.70;99.90
3154;DHT22;1587;48.630;9.046;2024-01-07T21:05:06;-2.70;99.90
3154;DHT22;1587;48.630;9.046;2024-01-07T21:07:33;-2.80;99.90
3154;DHT22;1587;48.630;9.046;2024-01-07T21:09:58;-2.80;99.90
3154;DHT22;1587;48.630;9.046;2024-01-07T21:12:24;-2.80;99.90
3154;DHT22;1587;48.630;9.046;2024-01-07T21:14:49;-2.80;99.90
3154;DHT22;1587;48.630;9.046;2024-01-07T21:17:15;-2.80;99.90
3154;DHT22;1587;48.630;9.046;2024-01-07T21:19:40;-2.80;99.90
3154;DHT22;1587;48.630;9.046;2024-01-07T21:22:08;-2.70;99.90
3154;DHT22;1587;48.630;9.046;2024-01-07T21:24:38;-2.70;99.90
3154;DHT22;1587;48.630;9.046;2024-01-07T21:27:03;-2.80;99.90
3154;DHT22;1587;48.630;9.046;2024-01-07T21:29:29;-2.90;99.90
3154;DHT22;1587;48.630;9.046;2024-01-07T21:31:54;-2.90;99.90
3154;DHT22;1587;48.630;9.046;2024-01-07T21:34:20;-2.90;99.90
3154;DHT22;1587;48.630;9.046;2024-01-07T21:36:45;-2.80;99.90
3154;DHT22;1587;48.630;9.046;2024-01-07T21:39:11;-2.90;99.90
3154;DHT22;1587;48.630;9.046;2024-01-07T21:41:43;-2.90;99.90
3154;DHT22;1587;48.630;9.046;2024-01-07T21:44:10;-2.90;99.90
3154;DHT22;1587;48.630;9.046;2024-01-07T21:46:42;-2.90;99.90
3154;DHT22;1587;48.630;9.046;2024-01-07T21:49:07;-3.00;99.90
3154;DHT22;1587;48.630;9.046;2024-01-07T21:51:33;-2.90;99.90
3154;DHT22;1587;48.630;9.046;2024-01-07T21:53:59;-3.00;99.90
3154;DHT22;1587;48.630;9.046;2024-01-07T21:56:25;-2.90;99.90
3154;DHT22;1587;48.630;9.046;2024-01-07T21:58:50;-2.90;99.90
3154;DHT22;1587;48.630;9.046;2024-01-07T22:01:16;-3.00;99.90
3154;DHT22;1587;48.630;9.046;2024-01-07T22:03:41;-3.00;99.90
3154;DHT22;1587;48.630;9.046;2024-01-07T22:06:06;-3.00;99.90
3154;DHT22;1587;48.630;9.046;2024-01-07T22:08:32;-3.00;99.90
3154;DHT22;1587;48.630;9.046;2024-01-07T22:10:57;-2.90;99.90
3154;DHT22;1587;48.630;9.046;2024-01-07T22:13:23;-3.00;99.90
3154;DHT22;1587;48.630;9.046;2024-01-07T22:15:48;-3.00;99.90
3154;DHT22;1587;48.630;9.046;2024-01-07T22:18:14;-3.00;99.90
3154;DHT22;1587;48.630;9.046;2024-01-07T22:20:40;-3.10;99.90
3154;DHT22;1587;48.630;9.046;2024-01-07T22:23:05;-3.10;99.90
3154;DHT22;1587;48.630;9.046;2024-01-07T22:25:30;-3.10;99.90
3154;DHT22;1587;48.630;9.046;2024-01-07T22:27:56;-3.10;99.90
3154;DHT22;1587;48.630;9.046;2024-01-07T22:30:22;-3.10;99.90
3154;DHT22;1587;48.630;9.046;2024-01-07T22:32:48;-3.10;99.90
3154;DHT22;1587;48.630;9.046;2024-01-07T22:35:13;-3.10;99.90
3154;DHT22;1587;48.630;9.046;2024-01-07T22:37:39;-3.10;99.90
3154;DHT22;1587;48.630;9.046;2024-01-07T22:40:05;-3.10;99.90
3154;DHT22;1587;48.630;9.046;2024-01-07T22:42:31;-3.10;99.90
3154;DHT22;1587;48.630;9.046;2024-01-07T22:44:56;-3.20;99.90
3154;DHT22;1587;48.630;9.046;2024-01-07T22:47:22;-3.20;99.90
3154;DHT22;1587;48.630;9.046;2024-01-07T22:49:47;-3.10;99.90
3154;DHT22;1587;48.630;9.046;2024-01-07T22:52:13;-3.20;99.90
3154;DHT22;1587;48.630;9.046;2024-01-07T22:54:38;-3.10;99.90
3154;DHT22;1587;48.630;9.046;2024-01-07T22:57:04;-3.00;99.90
3154;DHT22;1587;48.630;9.046;2024-01-07T22:59:31;-3.10;99.90
3154;DHT22;1587;48.630;9.046;2024-01-07T23:01:58;-3.20;99.90
3154;DHT22;1587;48.630;9.046;2024-01-07T23:04:23;-3.10;99.90
3154;DHT22;1587;48.630;9.046;2024-01-07T23:06:49;-3.20;99.90
3154;DHT22;1587;48.630;9.046;2024-01-07T23:09:15;-3.10;99.90
3154;DHT22;1587;48.630;9.046;2024-01-07T23:11:40;-3.20;99.90
3154;DHT22;1587;48.630;9.046;2024-01-07T23:14:06;-3.20;99.90
3154;DHT22;1587;48.630;9.046;2024-01-07T23:16:32;-3.10;99.90
3154;DHT22;1587;48.630;9.046;2024-01-07T23:18:59;-3.20;99.90
3154;DHT22;1587;48.630;9.046;2024-01-07T23:21:25;-3.20;99.90
3154;DHT22;1587;48.630;9.046;2024-01-07T23:23:50;-3.20;99.90
3154;DHT22;1587;48.630;9.046;2024-01-07T23:26:16;-3.20;99.90
3154;DHT22;1587;48.630;9.046;2024-01-07T23:28:43;-3.20;99.90
3154;DHT22;1587;48.630;9.046;2024-01-07T23:31:09;-3.20;99.90
3154;DHT22;1587;48.630;9.046;2024-01-07T23:33:38;-3.20;99.90
3154;DHT22;1587;48.630;9.046;2024-01-07T23:36:03;-3.20;99.90
3154;DHT22;1587;48.630;9.046;2024-01-07T23:38:32;-3.20;99.90
3154;DHT22;1587;48.630;9.046;2024-01-07T23:40:58;-3.30;99.90
3154;DHT22;1587;48.630;9.046;2024-01-07T23:43:24;-3.30;99.90
3154;DHT22;1587;48.630;9.046;2024-01-07T23:45:49;-3.20;99.90
3154;DHT22;1587;48.630;9.046;2024-01-07T23:48:15;-3.20;99.90
3154;DHT22;1587;48.630;9.046;2024-01-07T23:50:40;-3.20;99.90
3154;DHT22;1587;48.630;9.046;2024-01-07T23:53:06;-3.30;99.90
3154;DHT22;1587;48.630;9.046;2024-01-07T23:55:31;-3.20;99.90
3154;DHT22;1587;48.630;9.046;2024-01-07T23:57:57;-3.30;99.90
